sensor_id;sensor_type;location;lat;lon;timestamp;P1;durP1;ratioP1;P2;durP2;ratioP2
28629;SDS011;15817;42.130;24.762;2022-07-05T00:01:13;4.85;;;2.08;;
28629;SDS011;15817;42.130;24.762;2022-07-05T00:03:39;4.90;;;1.70;;
28629;SDS011;15817;42.130;24.762;2022-07-05T00:06:04;9.40;;;1.80;;
28629;SDS011;15817;42.130;24.762;2022-07-05T00:08:31;14.95;;;2.05;;
28629;SDS011;15817;42.130;24.762;2022-07-05T00:10:56;3.70;;;1.65;;
28629;SDS011;15817;42.130;24.762;2022-07-05T00:13:22;5.07;;;1.70;;
28629;SDS011;15817;42.130;24.762;2022-07-05T00:15:48;4.60;;;1.50;;
28629;SDS011;15817;42.130;24.762;2022-07-05T00:18:17;6.15;;;1.92;;
28629;SDS011;15817;42.130;24.762;2022-07-05T00:20:43;2.67;;;1.70;;
28629;SDS011;15817;42.130;24.762;2022-07-05T00:23:09;9.63;;;1.88;;
28629;SDS011;15817;42.130;24.762;2022-07-05T00:25:35;4.47;;;1.90;;
28629;SDS011;15817;42.130;24.762;2022-07-05T00:28:04;2.85;;;1.80;;
28629;SDS011;15817;42.130;24.762;2022-07-05T00:30:30;5.15;;;1.83;;
28629;SDS011;15817;42.130;24.762;2022-07-05T00:32:56;3.42;;;1.67;;
28629;SDS011;15817;42.130;24.762;2022-07-05T00:35:22;3.38;;;1.85;;
28629;SDS011;15817;42.130;24.762;2022-07-05T00:37:51;2.35;;;1.58;;
28629;SDS011;15817;42.130;24.762;2022-07-05T00:40:17;6.03;;;1.98;;
28629;SDS011;15817;42.130;24.762;2022-07-05T00:42:43;5.28;;;2.47;;
28629;SDS011;15817;42.130;24.762;2022-07-05T00:45:09;4.30;;;2.42;;
28629;SDS011;15817;42.130;24.762;2022-07-05T00:47:35;6.93;;;2.22;;
28629;SDS011;15817;42.130;24.762;2022-07-05T00:50:01;3.45;;;2.13;;
28629;SDS011;15817;42.130;24.762;2022-07-05T00:52:27;4.15;;;2.05;;
28629;SDS011;15817;42.130;24.762;2022-07-05T00:54:53;6.80;;;2.22;;
28629;SDS011;15817;42.130;24.762;2022-07-05T00:57:22;6.35;;;1.90;;
28629;SDS011;15817;42.130;24.762;2022-07-05T00:59:48;2.15;;;1.73;;
28629;SDS011;15817;42.130;24.762;2022-07-05T01:02:18;3.40;;;2.10;;
28629;SDS011;15817;42.130;24.762;2022-07-05T01:04:46;2.83;;;1.73;;
28629;SDS011;15817;42.130;24.762;2022-07-05T01:07:13;6.43;;;1.90;;
28629;SDS011;15817;42.130;24.762;2022-07-05T01:09:41;2.50;;;1.70;;
28629;SDS011;15817;42.130;24.762;2022-07-05T01:12:08;8.57;;;2.30;;
28629;SDS011;15817;42.130;24.762;2022-07-05T01:14:33;8.73;;;2.13;;
28629;SDS011;15817;42.130;24.762;2022-07-05T01:17:00;7.43;;;1.90;;
28629;SDS011;15817;42.130;24.762;2022-07-05T01:19:25;5.63;;;2.15;;
28629;SDS011;15817;42.130;24.762;2022-07-05T01:21:51;5.82;;;2.22;;
28629;SDS011;15817;42.130;24.762;2022-07-05T01:24:18;7.75;;;2.70;;
28629;SDS011;15817;42.130;24.762;2022-07-05T01:26:48;4.32;;;2.53;;
28629;SDS011;15817;42.130;24.762;2022-07-05T01:29:15;3.65;;;2.35;;
28629;SDS011;15817;42.130;24.762;2022-07-05T01:31:41;10.88;;;3.28;;
28629;SDS011;15817;42.130;24.762;2022-07-05T01:34:08;8.30;;;2.63;;
28629;SDS011;15817;42.130;24.762;2022-07-05T01:36:34;7.22;;;3.05;;
28629;SDS011;15817;42.130;24.762;2022-07-05T01:39:01;5.57;;;2.40;;
28629;SDS011;15817;42.130;24.762;2022-07-05T01:41:28;8.55;;;2.92;;
28629;SDS011;15817;42.130;24.762;2022-07-05T01:43:54;5.82;;;2.90;;
28629;SDS011;15817;42.130;24.762;2022-07-05T01:46:21;4.28;;;2.50;;
28629;SDS011;15817;42.130;24.762;2022-07-05T01:48:49;6.80;;;2.75;;
28629;SDS011;15817;42.130;24.762;2022-07-05T01:51:22;13.38;;;2.70;;
28629;SDS011;15817;42.130;24.762;2022-07-05T01:53:52;9.45;;;3.40;;
28629;SDS011;15817;42.130;24.762;2022-07-05T01:56:18;7.63;;;2.85;;
28629;SDS011;15817;42.130;24.762;2022-07-05T01:58:45;9.77;;;2.95;;
28629;SDS011;15817;42.130;24.762;2022-07-05T02:01:11;12.43;;;3.00;;
28629;SDS011;15817;42.130;24.762;2022-07-05T02:03:47;6.38;;;2.60;;
28629;SDS011;15817;42.130;24.762;2022-07-05T02:06:15;5.05;;;2.58;;
28629;SDS011;15817;42.130;24.762;2022-07-05T02:08:41;7.55;;;3.00;;
28629;SDS011;15817;42.130;24.762;2022-07-05T02:11:09;5.75;;;2.65;;
28629;SDS011;15817;42.130;24.762;2022-07-05T02:13:36;6.93;;;2.92;;
28629;SDS011;15817;42.130;24.762;2022-07-05T02:16:04;6.30;;;3.30;;
28629;SDS011;15817;42.130;24.762;2022-07-05T02:18:30;5.30;;;2.97;;
28629;SDS011;15817;42.130;24.762;2022-07-05T02:20:55;7.28;;;3.10;;
28629;SDS011;15817;42.130;24.762;2022-07-05T02:23:21;12.23;;;3.28;;
28629;SDS011;15817;42.130;24.762;2022-07-05T02:25:47;8.35;;;3.13;;
28629;SDS011;15817;42.130;24.762;2022-07-05T02:28:15;5.03;;;2.65;;
28629;SDS011;15817;42.130;24.762;2022-07-05T02:30:45;11.00;;;2.35;;
28629;SDS011;15817;42.130;24.762;2022-07-05T02:33:11;2.75;;;2.25;;
28629;SDS011;15817;42.130;24.762;2022-07-05T02:35:40;5.47;;;2.42;;
28629;SDS011;15817;42.130;24.762;2022-07-05T02:38:06;9.95;;;2.35;;
28629;SDS011;15817;42.130;24.762;2022-07-05T02:40:32;8.00;;;2.42;;
28629;SDS011;15817;42.130;24.762;2022-07-05T02:42:59;5.22;;;2.63;;
28629;SDS011;15817;42.130;24.762;2022-07-05T02:45:25;9.73;;;2.75;;
28629;SDS011;15817;42.130;24.762;2022-07-05T02:47:57;7.78;;;2.70;;
28629;SDS011;15817;42.130;24.762;2022-07-05T02:50:29;6.72;;;2.47;;
28629;SDS011;15817;42.130;24.762;2022-07-05T02:52:55;12.35;;;3.50;;
28629;SDS011;15817;42.130;24.762;2022-07-05T02:55:21;6.47;;;2.90;;
28629;SDS011;15817;42.130;24.762;2022-07-05T02:57:47;8.18;;;2.42;;
28629;SDS011;15817;42.130;24.762;2022-07-05T03:00:16;32.00;;;3.38;;
28629;SDS011;15817;42.130;24.762;2022-07-05T03:02:47;10.38;;;2.97;;
28629;SDS011;15817;42.130;24.762;2022-07-05T03:05:14;10.23;;;3.22;;
28629;SDS011;15817;42.130;24.762;2022-07-05T03:07:46;12.32;;;3.60;;
28629;SDS011;15817;42.130;24.762;2022-07-05T03:10:12;7.80;;;2.75;;
28629;SDS011;15817;42.130;24.762;2022-07-05T03:12:38;10.27;;;3.40;;
28629;SDS011;15817;42.130;24.762;2022-07-05T03:15:08;12.82;;;3.13;;
28629;SDS011;15817;42.130;24.762;2022-07-05T03:17:34;13.82;;;3.33;;
28629;SDS011;15817;42.130;24.762;2022-07-05T03:20:01;14.50;;;3.47;;
28629;SDS011;15817;42.130;24.762;2022-07-05T03:22:27;6.20;;;3.10;;
28629;SDS011;15817;42.130;24.762;2022-07-05T03:24:54;7.40;;;2.95;;
28629;SDS011;15817;42.130;24.762;2022-07-05T03:27:21;4.15;;;2.45;;
28629;SDS011;15817;42.130;24.762;2022-07-05T03:29:50;11.48;;;2.85;;
28629;SDS011;15817;42.130;24.762;2022-07-05T03:32:19;12.65;;;3.10;;
28629;SDS011;15817;42.130;24.762;2022-07-05T03:34:46;7.57;;;3.00;;
28629;SDS011;15817;42.130;24.762;2022-07-05T03:37:16;8.00;;;3.38;;
28629;SDS011;15817;42.130;24.762;2022-07-05T03:39:42;9.07;;;4.10;;
28629;SDS011;15817;42.130;24.762;2022-07-05T03:42:08;11.93;;;3.70;;
28629;SDS011;15817;42.130;24.762;2022-07-05T03:44:34;9.00;;;3.30;;
28629;SDS011;15817;42.130;24.762;2022-07-05T03:47:13;12.23;;;3.38;;
28629;SDS011;15817;42.130;24.762;2022-07-05T03:49:44;10.48;;;3.92;;
28629;SDS011;15817;42.130;24.762;2022-07-05T03:52:16;7.50;;;3.45;;
28629;SDS011;15817;42.130;24.762;2022-07-05T03:54:43;18.67;;;3.65;;
28629;SDS011;15817;42.130;24.762;2022-07-05T03:57:10;16.10;;;3.50;;
28629;SDS011;15817;42.130;24.762;2022-07-05T03:59:37;10.05;;;2.88;;
28629;SDS011;15817;42.130;24.762;2022-07-05T04:02:03;5.40;;;3.50;;
28629;SDS011;15817;42.130;24.762;2022-07-05T04:04:30;13.77;;;3.30;;
28629;SDS011;15817;42.130;24.762;2022-07-05T04:06:56;10.98;;;3.30;;
28629;SDS011;15817;42.130;24.762;2022-07-05T04:09:31;5.30;;;2.90;;
28629;SDS011;15817;42.130;24.762;2022-07-05T04:11:57;7.97;;;3.00;;
28629;SDS011;15817;42.130;24.762;2022-07-05T04:14:23;6.07;;;2.75;;
28629;SDS011;15817;42.130;24.762;2022-07-05T04:17:11;12.43;;;3.65;;
28629;SDS011;15817;42.130;24.762;2022-07-05T04:19:36;8.95;;;3.78;;
28629;SDS011;15817;42.130;24.762;2022-07-05T04:22:03;7.93;;;3.72;;
28629;SDS011;15817;42.130;24.762;2022-07-05T04:24:39;11.77;;;4.10;;
28629;SDS011;15817;42.130;24.762;2022-07-05T04:27:23;9.27;;;3.53;;
28629;SDS011;15817;42.130;24.762;2022-07-05T04:29:53;8.73;;;3.10;;
28629;SDS011;15817;42.130;24.762;2022-07-05T04:32:19;7.20;;;3.10;;
28629;SDS011;15817;42.130;24.762;2022-07-05T04:34:45;7.70;;;3.25;;
28629;SDS011;15817;42.130;24.762;2022-07-05T04:37:11;11.68;;;2.92;;
28629;SDS011;15817;42.130;24.762;2022-07-05T04:39:37;8.65;;;3.03;;
28629;SDS011;15817;42.130;24.762;2022-07-05T04:42:07;6.07;;;3.15;;
28629;SDS011;15817;42.130;24.762;2022-07-05T04:44:33;8.77;;;2.95;;
28629;SDS011;15817;42.130;24.762;2022-07-05T04:47:02;5.85;;;2.80;;
28629;SDS011;15817;42.130;24.762;2022-07-05T04:49:31;7.00;;;3.08;;
28629;SDS011;15817;42.130;24.762;2022-07-05T04:51:56;7.35;;;2.72;;
28629;SDS011;15817;42.130;24.762;2022-07-05T04:54:22;4.78;;;2.50;;
28629;SDS011;15817;42.130;24.762;2022-07-05T04:56:48;10.00;;;2.97;;
28629;SDS011;15817;42.130;24.762;2022-07-05T04:59:14;11.60;;;3.78;;
28629;SDS011;15817;42.130;24.762;2022-07-05T05:01:40;7.30;;;3.10;;
28629;SDS011;15817;42.130;24.762;2022-07-05T05:04:09;11.75;;;3.30;;
28629;SDS011;15817;42.130;24.762;2022-07-05T05:06:41;10.27;;;3.33;;
28629;SDS011;15817;42.130;24.762;2022-07-05T05:09:07;12.60;;;2.83;;
28629;SDS011;15817;42.130;24.762;2022-07-05T05:11:33;8.85;;;3.35;;
28629;SDS011;15817;42.130;24.762;2022-07-05T05:13:58;9.65;;;3.40;;
28629;SDS011;15817;42.130;24.762;2022-07-05T05:16:24;9.25;;;3.08;;
28629;SDS011;15817;42.130;24.762;2022-07-05T05:18:50;9.40;;;3.80;;
28629;SDS011;15817;42.130;24.762;2022-07-05T05:21:22;9.80;;;3.33;;
28629;SDS011;15817;42.130;24.762;2022-07-05T05:23:53;6.18;;;3.10;;
28629;SDS011;15817;42.130;24.762;2022-07-05T05:29:19;12.10;;;3.45;;
28629;SDS011;15817;42.130;24.762;2022-07-05T05:31:47;10.50;;;3.00;;
28629;SDS011;15817;42.130;24.762;2022-07-05T05:34:33;7.05;;;3.30;;
28629;SDS011;15817;42.130;24.762;2022-07-05T05:37:04;9.93;;;2.83;;
28629;SDS011;15817;42.130;24.762;2022-07-05T05:39:33;6.80;;;2.58;;
28629;SDS011;15817;42.130;24.762;2022-07-05T05:42:01;7.38;;;2.85;;
28629;SDS011;15817;42.130;24.762;2022-07-05T05:44:27;3.72;;;2.47;;
28629;SDS011;15817;42.130;24.762;2022-07-05T05:46:53;6.10;;;2.20;;
28629;SDS011;15817;42.130;24.762;2022-07-05T05:49:18;7.32;;;3.70;;
28629;SDS011;15817;42.130;24.762;2022-07-05T05:51:49;11.30;;;2.38;;
28629;SDS011;15817;42.130;24.762;2022-07-05T05:54:15;16.35;;;3.13;;
28629;SDS011;15817;42.130;24.762;2022-07-05T05:56:43;12.73;;;2.83;;
28629;SDS011;15817;42.130;24.762;2022-07-05T05:59:21;12.18;;;2.58;;
28629;SDS011;15817;42.130;24.762;2022-07-05T06:01:54;10.60;;;3.35;;
28629;SDS011;15817;42.130;24.762;2022-07-05T06:04:25;14.82;;;3.17;;
28629;SDS011;15817;42.130;24.762;2022-07-05T06:06:51;7.15;;;2.22;;
28629;SDS011;15817;42.130;24.762;2022-07-05T06:09:17;5.43;;;2.25;;
28629;SDS011;15817;42.130;24.762;2022-07-05T06:11:43;6.13;;;3.10;;
28629;SDS011;15817;42.130;24.762;2022-07-05T06:14:09;8.20;;;2.90;;
28629;SDS011;15817;42.130;24.762;2022-07-05T06:16:36;6.97;;;2.80;;
28629;SDS011;15817;42.130;24.762;2022-07-05T06:19:02;11.30;;;2.63;;
28629;SDS011;15817;42.130;24.762;2022-07-05T06:21:28;6.65;;;3.00;;
28629;SDS011;15817;42.130;24.762;2022-07-05T06:23:56;6.60;;;2.80;;
28629;SDS011;15817;42.130;24.762;2022-07-05T06:26:22;13.48;;;2.97;;
28629;SDS011;15817;42.130;24.762;2022-07-05T06:28:56;22.70;;;3.78;;
28629;SDS011;15817;42.130;24.762;2022-07-05T06:31:25;19.60;;;4.20;;
28629;SDS011;15817;42.130;24.762;2022-07-05T06:33:51;23.35;;;4.47;;
28629;SDS011;15817;42.130;24.762;2022-07-05T06:36:17;8.32;;;2.65;;
28629;SDS011;15817;42.130;24.762;2022-07-05T06:38:42;6.43;;;2.47;;
28629;SDS011;15817;42.130;24.762;2022-07-05T06:41:08;7.85;;;3.08;;
28629;SDS011;15817;42.130;24.762;2022-07-05T06:43:36;20.45;;;3.50;;
28629;SDS011;15817;42.130;24.762;2022-07-05T06:46:07;8.60;;;2.40;;
28629;SDS011;15817;42.130;24.762;2022-07-05T06:48:33;6.78;;;2.70;;
28629;SDS011;15817;42.130;24.762;2022-07-05T06:50:59;6.05;;;2.30;;
28629;SDS011;15817;42.130;24.762;2022-07-05T06:53:27;11.60;;;2.80;;
28629;SDS011;15817;42.130;24.762;2022-07-05T06:55:55;6.82;;;2.50;;
28629;SDS011;15817;42.130;24.762;2022-07-05T06:58:21;9.77;;;3.17;;
28629;SDS011;15817;42.130;24.762;2022-07-05T07:00:52;15.40;;;3.13;;
28629;SDS011;15817;42.130;24.762;2022-07-05T07:03:18;11.45;;;2.90;;
28629;SDS011;15817;42.130;24.762;2022-07-05T07:05:44;5.63;;;2.78;;
28629;SDS011;15817;42.130;24.762;2022-07-05T07:08:12;4.25;;;2.60;;
28629;SDS011;15817;42.130;24.762;2022-07-05T07:10:56;12.27;;;2.38;;
28629;SDS011;15817;42.130;24.762;2022-07-05T07:13:22;13.45;;;3.03;;
28629;SDS011;15817;42.130;24.762;2022-07-05T07:15:48;9.55;;;3.00;;
28629;SDS011;15817;42.130;24.762;2022-07-05T07:18:14;7.63;;;2.53;;
28629;SDS011;15817;42.130;24.762;2022-07-05T07:20:41;8.40;;;2.85;;
28629;SDS011;15817;42.130;24.762;2022-07-05T07:23:07;17.30;;;3.22;;
28629;SDS011;15817;42.130;24.762;2022-07-05T07:25:33;6.97;;;2.95;;
28629;SDS011;15817;42.130;24.762;2022-07-05T07:27:59;9.35;;;2.58;;
28629;SDS011;15817;42.130;24.762;2022-07-05T07:30:26;10.63;;;3.15;;
28629;SDS011;15817;42.130;24.762;2022-07-05T07:32:53;14.18;;;3.00;;
28629;SDS011;15817;42.130;24.762;2022-07-05T07:35:19;4.07;;;2.30;;
28629;SDS011;15817;42.130;24.762;2022-07-05T07:37:46;8.50;;;2.30;;
28629;SDS011;15817;42.130;24.762;2022-07-05T07:40:12;5.88;;;2.40;;
28629;SDS011;15817;42.130;24.762;2022-07-05T07:42:38;10.95;;;2.45;;
28629;SDS011;15817;42.130;24.762;2022-07-05T07:45:04;4.40;;;2.30;;
28629;SDS011;15817;42.130;24.762;2022-07-05T07:47:31;11.52;;;2.85;;
28629;SDS011;15817;42.130;24.762;2022-07-05T07:49:57;21.67;;;2.97;;
28629;SDS011;15817;42.130;24.762;2022-07-05T07:52:23;7.03;;;2.65;;
28629;SDS011;15817;42.130;24.762;2022-07-05T07:54:49;5.78;;;2.50;;
28629;SDS011;15817;42.130;24.762;2022-07-05T07:57:15;7.93;;;2.55;;
28629;SDS011;15817;42.130;24.762;2022-07-05T07:59:40;8.68;;;2.45;;
28629;SDS011;15817;42.130;24.762;2022-07-05T08:02:06;9.65;;;2.17;;
28629;SDS011;15817;42.130;24.762;2022-07-05T08:04:36;7.32;;;2.97;;
28629;SDS011;15817;42.130;24.762;2022-07-05T08:07:02;5.95;;;2.50;;
28629;SDS011;15817;42.130;24.762;2022-07-05T08:09:32;7.82;;;2.35;;
28629;SDS011;15817;42.130;24.762;2022-07-05T08:11:58;7.88;;;2.25;;
28629;SDS011;15817;42.130;24.762;2022-07-05T08:14:24;4.00;;;2.03;;
28629;SDS011;15817;42.130;24.762;2022-07-05T08:16:50;5.00;;;2.20;;
28629;SDS011;15817;42.130;24.762;2022-07-05T08:19:16;5.10;;;2.08;;
28629;SDS011;15817;42.130;24.762;2022-07-05T08:22:01;5.68;;;2.25;;
28629;SDS011;15817;42.130;24.762;2022-07-05T08:24:29;2.80;;;1.77;;
28629;SDS011;15817;42.130;24.762;2022-07-05T08:26:58;3.80;;;1.73;;
28629;SDS011;15817;42.130;24.762;2022-07-05T08:29:24;5.80;;;1.90;;
28629;SDS011;15817;42.130;24.762;2022-07-05T08:31:53;5.75;;;2.22;;
28629;SDS011;15817;42.130;24.762;2022-07-05T08:34:19;5.05;;;2.10;;
28629;SDS011;15817;42.130;24.762;2022-07-05T08:36:45;2.55;;;1.90;;
28629;SDS011;15817;42.130;24.762;2022-07-05T08:39:20;9.07;;;2.28;;
28629;SDS011;15817;42.130;24.762;2022-07-05T08:41:50;8.27;;;2.20;;
28629;SDS011;15817;42.130;24.762;2022-07-05T08:44:20;5.45;;;2.10;;
28629;SDS011;15817;42.130;24.762;2022-07-05T08:46:48;6.65;;;2.20;;
28629;SDS011;15817;42.130;24.762;2022-07-05T08:49:27;7.90;;;2.28;;
28629;SDS011;15817;42.130;24.762;2022-07-05T08:51:56;6.57;;;2.03;;
28629;SDS011;15817;42.130;24.762;2022-07-05T08:54:23;7.30;;;1.67;;
28629;SDS011;15817;42.130;24.762;2022-07-05T08:56:50;11.43;;;2.08;;
28629;SDS011;15817;42.130;24.762;2022-07-05T08:59:19;8.52;;;2.25;;
28629;SDS011;15817;42.130;24.762;2022-07-05T09:01:45;8.10;;;2.40;;
28629;SDS011;15817;42.130;24.762;2022-07-05T09:04:17;6.10;;;1.85;;
28629;SDS011;15817;42.130;24.762;2022-07-05T09:06:45;5.55;;;2.65;;
28629;SDS011;15817;42.130;24.762;2022-07-05T09:09:12;2.65;;;1.83;;
28629;SDS011;15817;42.130;24.762;2022-07-05T09:11:40;4.55;;;2.00;;
28629;SDS011;15817;42.130;24.762;2022-07-05T09:14:27;6.00;;;2.30;;
28629;SDS011;15817;42.130;24.762;2022-07-05T09:16:52;10.63;;;2.10;;
28629;SDS011;15817;42.130;24.762;2022-07-05T09:19:18;8.20;;;2.30;;
28629;SDS011;15817;42.130;24.762;2022-07-05T09:21:44;7.63;;;2.53;;
28629;SDS011;15817;42.130;24.762;2022-07-05T09:24:25;11.40;;;2.88;;
28629;SDS011;15817;42.130;24.762;2022-07-05T09:27:03;5.57;;;3.00;;
28629;SDS011;15817;42.130;24.762;2022-07-05T09:29:30;6.95;;;2.25;;
28629;SDS011;15817;42.130;24.762;2022-07-05T09:31:56;9.15;;;2.60;;
28629;SDS011;15817;42.130;24.762;2022-07-05T09:34:24;6.93;;;2.42;;
28629;SDS011;15817;42.130;24.762;2022-07-05T09:45:28;4.70;;;2.45;;
28629;SDS011;15817;42.130;24.762;2022-07-05T09:47:54;8.10;;;2.70;;
28629;SDS011;15817;42.130;24.762;2022-07-05T09:50:33;9.32;;;2.95;;
28629;SDS011;15817;42.130;24.762;2022-07-05T09:53:01;18.83;;;3.13;;
28629;SDS011;15817;42.130;24.762;2022-07-05T09:55:27;7.47;;;2.65;;
28629;SDS011;15817;42.130;24.762;2022-07-05T09:57:58;9.00;;;2.95;;
28629;SDS011;15817;42.130;24.762;2022-07-05T10:00:27;10.65;;;2.33;;
28629;SDS011;15817;42.130;24.762;2022-07-05T10:02:53;12.45;;;2.30;;
28629;SDS011;15817;42.130;24.762;2022-07-05T10:05:27;8.70;;;2.13;;
28629;SDS011;15817;42.130;24.762;2022-07-05T10:07:58;8.70;;;2.10;;
28629;SDS011;15817;42.130;24.762;2022-07-05T10:10:26;7.18;;;1.95;;
28629;SDS011;15817;42.130;24.762;2022-07-05T10:12:57;8.60;;;2.25;;
28629;SDS011;15817;42.130;24.762;2022-07-05T10:15:27;5.60;;;2.17;;
28629;SDS011;15817;42.130;24.762;2022-07-05T10:20:34;7.13;;;2.13;;
28629;SDS011;15817;42.130;24.762;2022-07-05T10:23:17;5.85;;;2.22;;
28629;SDS011;15817;42.130;24.762;2022-07-05T10:25:45;4.97;;;1.90;;
28629;SDS011;15817;42.130;24.762;2022-07-05T10:28:15;9.80;;;2.20;;
28629;SDS011;15817;42.130;24.762;2022-07-05T10:30:46;4.93;;;1.80;;
28629;SDS011;15817;42.130;24.762;2022-07-05T10:33:15;4.22;;;1.95;;
28629;SDS011;15817;42.130;24.762;2022-07-05T10:35:46;2.53;;;1.80;;
28629;SDS011;15817;42.130;24.762;2022-07-05T10:38:12;3.75;;;2.20;;
28629;SDS011;15817;42.130;24.762;2022-07-05T10:40:40;9.35;;;2.53;;
28629;SDS011;15817;42.130;24.762;2022-07-05T10:43:08;3.45;;;2.10;;
28629;SDS011;15817;42.130;24.762;2022-07-05T10:45:46;5.85;;;2.20;;
28629;SDS011;15817;42.130;24.762;2022-07-05T10:48:19;6.10;;;2.33;;
28629;SDS011;15817;42.130;24.762;2022-07-05T10:50:59;6.45;;;2.10;;
28629;SDS011;15817;42.130;24.762;2022-07-05T10:58:41;5.03;;;2.00;;
28629;SDS011;15817;42.130;24.762;2022-07-05T11:01:53;5.00;;;2.50;;
28629;SDS011;15817;42.130;24.762;2022-07-05T11:06:45;5.00;;;2.13;;
28629;SDS011;15817;42.130;24.762;2022-07-05T11:09:15;3.70;;;2.20;;
28629;SDS011;15817;42.130;24.762;2022-07-05T11:11:44;7.45;;;2.50;;
28629;SDS011;15817;42.130;24.762;2022-07-05T11:16:49;3.75;;;2.03;;
28629;SDS011;15817;42.130;24.762;2022-07-05T11:22:27;5.30;;;2.90;;
28629;SDS011;15817;42.130;24.762;2022-07-05T11:24:54;6.03;;;2.58;;
28629;SDS011;15817;42.130;24.762;2022-07-05T11:27:28;10.40;;;2.63;;
28629;SDS011;15817;42.130;24.762;2022-07-05T11:29:54;6.80;;;2.42;;
28629;SDS011;15817;42.130;24.762;2022-07-05T11:38:08;5.10;;;2.55;;
28629;SDS011;15817;42.130;24.762;2022-07-05T11:40:35;7.53;;;3.17;;
28629;SDS011;15817;42.130;24.762;2022-07-05T11:43:03;4.55;;;2.85;;
28629;SDS011;15817;42.130;24.762;2022-07-05T11:45:29;6.82;;;3.10;;
28629;SDS011;15817;42.130;24.762;2022-07-05T11:47:56;3.65;;;2.65;;
28629;SDS011;15817;42.130;24.762;2022-07-05T11:50:26;5.88;;;2.25;;
28629;SDS011;15817;42.130;24.762;2022-07-05T11:52:53;10.35;;;2.53;;
28629;SDS011;15817;42.130;24.762;2022-07-05T11:55:19;6.65;;;2.63;;
28629;SDS011;15817;42.130;24.762;2022-07-05T11:57:49;5.53;;;2.50;;
28629;SDS011;15817;42.130;24.762;2022-07-05T12:00:25;4.18;;;2.42;;
28629;SDS011;15817;42.130;24.762;2022-07-05T12:02:58;6.43;;;2.38;;
28629;SDS011;15817;42.130;24.762;2022-07-05T12:05:31;6.45;;;2.55;;
28629;SDS011;15817;42.130;24.762;2022-07-05T12:07:57;7.45;;;2.80;;
28629;SDS011;15817;42.130;24.762;2022-07-05T12:10:23;4.72;;;3.00;;
28629;SDS011;15817;42.130;24.762;2022-07-05T12:13:10;7.30;;;3.20;;
28629;SDS011;15817;42.130;24.762;2022-07-05T12:15:37;4.88;;;2.55;;
28629;SDS011;15817;42.130;24.762;2022-07-05T12:18:03;7.07;;;3.03;;
28629;SDS011;15817;42.130;24.762;2022-07-05T12:20:31;3.95;;;2.63;;
28629;SDS011;15817;42.130;24.762;2022-07-05T12:22:58;8.43;;;3.20;;
28629;SDS011;15817;42.130;24.762;2022-07-05T12:25:26;8.95;;;3.00;;
28629;SDS011;15817;42.130;24.762;2022-07-05T12:27:54;5.20;;;2.88;;
28629;SDS011;15817;42.130;24.762;2022-07-05T12:30:21;6.28;;;3.20;;
28629;SDS011;15817;42.130;24.762;2022-07-05T12:33:07;10.40;;;3.30;;
28629;SDS011;15817;42.130;24.762;2022-07-05T12:35:38;5.05;;;2.92;;
28629;SDS011;15817;42.130;24.762;2022-07-05T12:38:16;5.68;;;3.10;;
28629;SDS011;15817;42.130;24.762;2022-07-05T12:40:47;7.75;;;3.17;;
28629;SDS011;15817;42.130;24.762;2022-07-05T12:43:15;8.70;;;3.40;;
28629;SDS011;15817;42.130;24.762;2022-07-05T12:46:03;11.15;;;3.60;;
28629;SDS011;15817;42.130;24.762;2022-07-05T12:48:36;4.70;;;3.05;;
28629;SDS011;15817;42.130;24.762;2022-07-05T12:51:03;9.52;;;3.60;;
28629;SDS011;15817;42.130;24.762;2022-07-05T12:53:30;6.93;;;2.92;;
28629;SDS011;15817;42.130;24.762;2022-07-05T12:56:15;8.75;;;3.28;;
28629;SDS011;15817;42.130;24.762;2022-07-05T12:59:00;6.57;;;2.90;;
28629;SDS011;15817;42.130;24.762;2022-07-05T13:01:29;6.45;;;4.10;;
28629;SDS011;15817;42.130;24.762;2022-07-05T13:06:41;9.48;;;3.03;;
28629;SDS011;15817;42.130;24.762;2022-07-05T13:09:12;4.65;;;2.70;;
28629;SDS011;15817;42.130;24.762;2022-07-05T13:11:42;7.95;;;3.15;;
28629;SDS011;15817;42.130;24.762;2022-07-05T13:14:08;6.15;;;2.90;;
28629;SDS011;15817;42.130;24.762;2022-07-05T13:16:34;7.75;;;3.10;;
28629;SDS011;15817;42.130;24.762;2022-07-05T13:19:07;4.78;;;3.00;;
28629;SDS011;15817;42.130;24.762;2022-07-05T13:21:33;7.30;;;2.90;;
28629;SDS011;15817;42.130;24.762;2022-07-05T13:23:59;8.10;;;2.90;;
28629;SDS011;15817;42.130;24.762;2022-07-05T13:26:25;11.90;;;3.22;;
28629;SDS011;15817;42.130;24.762;2022-07-05T13:28:51;4.10;;;2.63;;
28629;SDS011;15817;42.130;24.762;2022-07-05T13:31:17;3.95;;;2.97;;
28629;SDS011;15817;42.130;24.762;2022-07-05T13:33:42;14.82;;;4.13;;
28629;SDS011;15817;42.130;24.762;2022-07-05T13:36:08;10.57;;;3.25;;
28629;SDS011;15817;42.130;24.762;2022-07-05T13:38:34;7.45;;;3.20;;
28629;SDS011;15817;42.130;24.762;2022-07-05T13:41:00;5.93;;;2.92;;
28629;SDS011;15817;42.130;24.762;2022-07-05T13:43:25;7.80;;;3.50;;
28629;SDS011;15817;42.130;24.762;2022-07-05T13:45:51;8.63;;;3.50;;
28629;SDS011;15817;42.130;24.762;2022-07-05T13:48:17;12.00;;;3.20;;
28629;SDS011;15817;42.130;24.762;2022-07-05T13:50:43;7.40;;;3.30;;
28629;SDS011;15817;42.130;24.762;2022-07-05T13:53:11;10.43;;;3.17;;
28629;SDS011;15817;42.130;24.762;2022-07-05T13:55:41;6.75;;;3.13;;
28629;SDS011;15817;42.130;24.762;2022-07-05T13:58:07;9.35;;;3.47;;
28629;SDS011;15817;42.130;24.762;2022-07-05T14:00:33;9.77;;;3.13;;
28629;SDS011;15817;42.130;24.762;2022-07-05T14:02:59;7.47;;;3.13;;
28629;SDS011;15817;42.130;24.762;2022-07-05T14:05:25;6.93;;;3.10;;
28629;SDS011;15817;42.130;24.762;2022-07-05T14:07:53;13.02;;;3.72;;
28629;SDS011;15817;42.130;24.762;2022-07-05T14:10:19;7.22;;;3.17;;
28629;SDS011;15817;42.130;24.762;2022-07-05T14:12:45;9.43;;;2.95;;
28629;SDS011;15817;42.130;24.762;2022-07-05T14:15:10;4.72;;;3.08;;
28629;SDS011;15817;42.130;24.762;2022-07-05T14:17:36;12.20;;;2.70;;
28629;SDS011;15817;42.130;24.762;2022-07-05T14:20:03;7.28;;;3.03;;
28629;SDS011;15817;42.130;24.762;2022-07-05T14:22:29;6.18;;;3.05;;
28629;SDS011;15817;42.130;24.762;2022-07-05T14:24:55;7.88;;;3.30;;
28629;SDS011;15817;42.130;24.762;2022-07-05T14:27:24;5.63;;;3.17;;
28629;SDS011;15817;42.130;24.762;2022-07-05T14:29:50;9.27;;;3.38;;
28629;SDS011;15817;42.130;24.762;2022-07-05T14:32:16;5.68;;;3.33;;
28629;SDS011;15817;42.130;24.762;2022-07-05T14:34:41;5.97;;;3.17;;
28629;SDS011;15817;42.130;24.762;2022-07-05T14:37:07;11.25;;;3.35;;
28629;SDS011;15817;42.130;24.762;2022-07-05T14:39:33;4.25;;;3.20;;
28629;SDS011;15817;42.130;24.762;2022-07-05T14:41:59;5.82;;;3.65;;
28629;SDS011;15817;42.130;24.762;2022-07-05T14:44:24;4.72;;;3.20;;
28629;SDS011;15817;42.130;24.762;2022-07-05T14:46:50;6.30;;;2.92;;
28629;SDS011;15817;42.130;24.762;2022-07-05T14:49:16;4.13;;;3.20;;
28629;SDS011;15817;42.130;24.762;2022-07-05T14:51:42;5.97;;;3.42;;
28629;SDS011;15817;42.130;24.762;2022-07-05T14:54:08;5.43;;;3.53;;
28629;SDS011;15817;42.130;24.762;2022-07-05T15:00:06;10.23;;;3.22;;
28629;SDS011;15817;42.130;24.762;2022-07-05T15:02:34;7.90;;;3.13;;
28629;SDS011;15817;42.130;24.762;2022-07-05T15:05:07;4.95;;;2.85;;
28629;SDS011;15817;42.130;24.762;2022-07-05T15:07:35;11.65;;;3.15;;
28629;SDS011;15817;42.130;24.762;2022-07-05T15:10:10;5.13;;;2.60;;
28629;SDS011;15817;42.130;24.762;2022-07-05T15:12:36;6.25;;;3.08;;
28629;SDS011;15817;42.130;24.762;2022-07-05T15:15:01;4.70;;;2.80;;
28629;SDS011;15817;42.130;24.762;2022-07-05T15:17:28;6.43;;;3.03;;